createdAt,value
2018-09-08T00:01:43.134Z,99.90
2018-09-08T00:04:12.514Z,99.90
2018-09-08T00:06:41.984Z,99.90
2018-09-08T00:09:11.479Z,99.90
2018-09-08T00:11:40.946Z,99.90
2018-09-08T00:14:10.328Z,99.90
2018-09-08T00:16:44.778Z,99.90
2018-09-08T00:19:19.518Z,99.90
2018-09-08T00:21:54.148Z,99.90
2018-09-08T00:24:28.898Z,99.90
2018-09-08T00:29:46.601Z,99.90
2018-09-08T00:32:16.339Z,99.90
2018-09-08T00:34:45.620Z,99.90
2018-09-08T00:37:15.024Z,99.90
2018-09-08T00:39:45.318Z,99.90
2018-09-08T00:42:14.668Z,99.90
2018-09-08T00:44:44.118Z,99.90
2018-09-08T00:47:13.549Z,99.90
2018-09-08T00:49:44.046Z,99.90
2018-09-08T00:52:13.464Z,99.90
2018-09-08T00:54:42.882Z,99.90
2018-09-08T00:57:12.301Z,99.90
2018-09-08T00:59:43.771Z,99.90
2018-09-08T01:02:13.172Z,99.90
2018-09-08T01:04:42.545Z,99.90
2018-09-08T01:07:17.096Z,99.90
2018-09-08T01:09:54.173Z,99.90
2018-09-08T01:12:23.591Z,99.90
2018-09-08T01:14:53.007Z,99.90
2018-09-08T01:17:22.453Z,99.90
2018-09-08T01:19:56.249Z,99.90
2018-09-08T01:22:33.534Z,99.90
2018-09-08T01:25:02.629Z,99.90
2018-09-08T01:27:31.793Z,99.90
2018-09-08T01:30:05.605Z,99.90
2018-09-08T01:32:34.764Z,99.90
2018-09-08T01:40:10.219Z,99.90
2018-09-08T01:42:39.390Z,99.90
2018-09-08T01:45:08.831Z,99.90
2018-09-08T01:47:37.916Z,99.90
2018-09-08T01:50:07.150Z,99.90
2018-09-08T01:52:36.308Z,99.90
2018-09-08T01:55:05.427Z,99.90
2018-09-08T01:57:34.540Z,99.90
2018-09-08T02:00:04.656Z,99.90
2018-09-08T02:07:31.480Z,99.90
2018-09-08T02:10:01.574Z,99.90
2018-09-08T02:12:30.717Z,99.90
2018-09-08T02:15:00.091Z,99.90
2018-09-08T02:17:29.469Z,99.90
2018-09-08T02:19:59.969Z,99.90
2018-09-08T02:22:29.376Z,99.90
2018-09-08T02:24:58.766Z,99.90
2018-09-08T02:27:28.146Z,99.90
2018-09-08T02:29:59.584Z,99.90
2018-09-08T02:32:28.971Z,99.90
2018-09-08T02:34:58.376Z,99.90
2018-09-08T02:37:27.893Z,99.90
2018-09-08T02:40:22.358Z,99.90
2018-09-08T02:42:51.878Z,99.90
2018-09-08T02:45:21.214Z,99.90
2018-09-08T02:47:50.412Z,99.90
2018-09-08T02:50:38.156Z,99.90
2018-09-08T02:55:34.707Z,99.90
2018-09-08T02:58:02.320Z,99.90
2018-09-08T03:05:30.109Z,99.90
2018-09-08T03:07:57.715Z,99.90
2018-09-08T03:15:21.869Z,99.90
2018-09-08T03:17:49.464Z,99.90
2018-09-08T03:40:17.452Z,99.90
2018-09-08T03:42:45.138Z,99.90
2018-09-08T03:47:40.753Z,99.90
2018-09-08T05:55:31.579Z,99.90
2018-09-08T05:58:00.949Z,99.90
2018-09-08T06:00:43.201Z,99.90
2018-09-08T06:03:14.724Z,99.90
2018-09-08T06:05:44.070Z,99.90
2018-09-08T06:08:13.414Z,99.90
2018-09-08T06:10:47.439Z,99.90
2018-09-08T06:13:16.853Z,99.90
2018-09-08T06:15:46.333Z,99.90
2018-09-08T06:18:15.840Z,99.90
2018-09-08T06:20:53.290Z,99.90
2018-09-08T06:23:22.578Z,99.90
2018-09-08T06:25:51.986Z,99.90
2018-09-08T06:35:48.673Z,99.90
2018-09-08T06:48:14.229Z,99.90
2018-09-08T06:50:49.676Z,99.90
2018-09-08T06:53:19.025Z,99.90
2018-09-08T06:55:48.430Z,99.90
2018-09-08T06:58:17.745Z,99.90
2018-09-08T07:00:47.163Z,99.90
2018-09-08T07:03:16.608Z,99.90
2018-09-08T07:05:45.937Z,99.90
2018-09-08T07:08:15.234Z,99.90
2018-09-08T07:10:44.569Z,99.90
2018-09-08T07:13:13.880Z,99.90
2018-09-08T07:15:43.224Z,99.90
2018-09-08T07:18:12.494Z,99.90
2018-09-08T07:20:49.015Z,99.90
2018-09-08T07:23:18.377Z,99.90
2018-09-08T07:25:47.800Z,99.90
2018-09-08T07:28:17.260Z,99.90
2018-09-08T07:30:48.589Z,99.90
2018-09-08T07:33:17.969Z,99.90
2018-09-08T07:35:47.305Z,99.90
2018-09-08T07:38:16.740Z,99.90
2018-09-08T07:40:47.144Z,99.90
2018-09-08T07:43:16.457Z,99.90
2018-09-08T07:45:45.844Z,99.90
2018-09-08T07:48:15.342Z,99.90
2018-09-08T07:50:52.025Z,99.90
2018-09-08T07:53:21.559Z,99.90
2018-09-08T07:55:50.861Z,99.90
2018-09-08T07:58:20.307Z,99.90
2018-09-08T08:00:49.699Z,99.90
2018-09-08T08:03:19.150Z,99.90
2018-09-08T08:05:48.596Z,99.90
2018-09-08T08:08:18.315Z,99.90
2018-09-08T08:10:47.738Z,99.90
2018-09-08T08:13:17.045Z,99.90
2018-09-08T08:15:46.500Z,99.90
2018-09-08T08:18:15.828Z,99.90
2018-09-08T08:20:52.541Z,99.90
2018-09-08T08:23:22.745Z,99.90
2018-09-08T08:25:52.152Z,99.90
2018-09-08T08:28:21.501Z,99.90
2018-09-08T08:30:50.945Z,99.90
2018-09-08T08:33:20.363Z,99.90
2018-09-08T08:35:49.778Z,99.90
2018-09-08T08:38:19.153Z,99.90
2018-09-08T08:40:48.570Z,99.90
2018-09-08T08:43:18.116Z,99.90
2018-09-08T08:45:47.444Z,99.90
2018-09-08T08:48:16.897Z,99.90
2018-09-08T08:51:07.676Z,99.90
2018-09-08T08:53:54.090Z,99.90
2018-09-08T08:56:23.509Z,99.90
2018-09-08T08:58:53.926Z,99.90
2018-09-08T09:01:23.342Z,99.90
2018-09-08T09:03:52.793Z,99.90
2018-09-08T09:06:22.236Z,99.90
2018-09-08T09:08:55.010Z,99.90
2018-09-08T09:11:24.472Z,99.90
2018-09-08T09:13:53.795Z,99.90
2018-09-08T09:16:23.206Z,99.90
2018-09-08T09:19:37.835Z,99.90
2018-09-08T09:22:25.584Z,99.90
2018-09-08T09:25:16.061Z,99.90
2018-09-08T09:27:46.786Z,99.90
2018-09-08T09:30:24.885Z,99.90
2018-09-08T09:32:54.335Z,99.90
2018-09-08T09:35:23.966Z,99.90
2018-09-08T09:37:53.311Z,99.90
2018-09-08T09:40:23.621Z,99.90
2018-09-08T09:42:53.061Z,99.90
2018-09-08T09:45:22.374Z,99.90
2018-09-08T09:47:51.765Z,99.90
2018-09-08T09:50:38.330Z,99.90
2018-09-08T09:53:07.752Z,99.90
2018-09-08T09:55:37.070Z,99.90
2018-09-08T09:58:06.476Z,99.90
2018-09-08T10:00:41.079Z,99.90
2018-09-08T10:03:10.917Z,99.90
2018-09-08T10:05:40.231Z,99.90
2018-09-08T10:08:09.713Z,99.90
2018-09-08T10:10:43.732Z,99.90
2018-09-08T10:13:13.150Z,99.90
2018-09-08T10:15:42.542Z,99.90
2018-09-08T10:18:11.938Z,99.90
2018-09-08T10:20:42.440Z,99.90
2018-09-08T10:23:11.951Z,99.90
2018-09-08T10:25:41.433Z,99.90
2018-09-08T10:28:10.866Z,99.90
2018-09-08T10:33:10.197Z,99.90
2018-09-08T10:35:39.280Z,99.90
2018-09-08T10:38:08.376Z,99.90
2018-09-08T10:40:39.722Z,99.90
2018-09-08T10:43:08.894Z,99.90
2018-09-08T10:45:37.996Z,99.90
2018-09-08T10:48:07.133Z,99.90
2018-09-08T10:50:40.729Z,99.90
2018-09-08T10:53:09.901Z,99.90
2018-09-08T10:55:39.036Z,99.90
2018-09-08T10:58:08.134Z,99.90
2018-09-08T11:00:37.276Z,99.90
2018-09-08T11:03:06.420Z,99.90
2018-09-08T11:05:35.500Z,99.90
2018-09-08T11:08:04.596Z,99.90
2018-09-08T11:10:41.559Z,98.40
2018-09-08T11:13:10.679Z,97.20
2018-09-08T11:15:39.814Z,96.30
2018-09-08T11:18:09.129Z,96.50
2018-09-08T11:20:44.041Z,97.10
2018-09-08T11:23:13.429Z,93.60
2018-09-08T11:25:42.861Z,94.50
2018-09-08T11:28:12.201Z,93.20
2018-09-08T11:30:41.643Z,93.50
2018-09-08T11:33:10.922Z,91.70
2018-09-08T11:35:40.291Z,91.80
2018-09-08T11:38:09.796Z,91.60
2018-09-08T11:40:40.251Z,83.10
2018-09-08T11:43:09.713Z,84.90
2018-09-08T11:45:39.131Z,81.40
2018-09-08T11:48:08.622Z,81.40
2018-09-08T11:50:41.606Z,80.90
2018-09-08T11:53:10.937Z,83.30
2018-09-08T11:55:40.481Z,79.20
2018-09-08T11:58:09.759Z,76.00
2018-09-08T12:00:39.146Z,77.10
2018-09-08T12:03:08.745Z,70.00
2018-09-08T12:05:38.189Z,70.00
2018-09-08T12:10:36.789Z,96.70
2018-09-08T12:13:06.102Z,67.90
2018-09-08T12:15:35.497Z,69.20
2018-09-08T12:18:04.973Z,76.00
2018-09-08T12:20:36.507Z,60.00
2018-09-08T12:23:05.996Z,60.20
2018-09-08T12:28:04.370Z,61.20
2018-09-08T12:30:35.945Z,63.80
2018-09-08T12:38:03.945Z,61.10
2018-09-08T12:45:32.757Z,88.10
2018-09-08T12:48:02.206Z,78.20
2018-09-08T12:50:33.666Z,83.80
2018-09-08T12:53:03.081Z,72.50
2018-09-08T12:55:32.466Z,66.50
2018-09-08T12:58:01.948Z,57.50
2018-09-08T13:00:31.476Z,61.20
2018-09-08T13:03:00.889Z,65.60
2018-09-08T13:05:30.036Z,55.60
2018-09-08T13:07:59.165Z,58.20
2018-09-08T13:10:37.885Z,57.20
2018-09-08T13:13:07.047Z,57.10
2018-09-08T13:15:36.138Z,53.90
2018-09-08T13:18:05.256Z,51.40
2018-09-08T13:21:05.262Z,50.30
2018-09-08T13:26:03.262Z,56.50
2018-09-08T13:28:33.503Z,48.60
2018-09-08T13:33:31.442Z,55.70
2018-09-08T13:36:00.553Z,58.60
2018-09-08T13:40:59.635Z,43.00
2018-09-08T13:43:28.828Z,46.40
2018-09-08T13:45:57.940Z,43.90
2018-09-08T13:48:27.223Z,44.80
2018-09-08T13:50:56.631Z,45.90
2018-09-08T13:53:26.187Z,43.90
2018-09-08T13:58:24.711Z,43.50
2018-09-08T14:03:23.244Z,72.60
2018-09-08T14:05:52.710Z,43.50
2018-09-08T14:08:22.111Z,45.70
2018-09-08T14:10:51.519Z,46.60
2018-09-08T14:15:59.946Z,45.10
2018-09-08T14:18:29.328Z,47.60
2018-09-08T14:20:58.657Z,79.10
2018-09-08T14:23:28.101Z,78.70
2018-09-08T14:38:23.822Z,45.30
2018-09-08T14:43:22.282Z,79.70
2018-09-08T14:45:51.694Z,55.30
2018-09-08T14:48:21.118Z,64.50
2018-09-08T14:53:19.593Z,66.30
2018-09-08T14:55:49.034Z,48.20
2018-09-08T15:00:47.433Z,39.30
2018-09-08T15:03:16.887Z,39.70
2018-09-08T15:10:49.334Z,41.60
2018-09-08T15:13:18.713Z,55.70
2018-09-08T15:20:51.621Z,41.20
2018-09-08T15:23:21.110Z,45.10
2018-09-08T15:25:50.485Z,52.50
2018-09-08T15:28:19.915Z,42.50
2018-09-08T15:30:49.242Z,42.90
2018-09-08T15:33:18.653Z,45.40
2018-09-08T15:35:48.082Z,60.30
2018-09-08T15:38:17.456Z,59.70
2018-09-08T15:40:46.884Z,57.10
2018-09-08T15:43:16.627Z,44.00
2018-09-08T15:45:46.072Z,43.80
2018-09-08T15:48:15.457Z,52.20
2018-09-08T15:50:44.737Z,58.50
2018-09-08T15:53:13.852Z,46.00
2018-09-08T15:55:43.078Z,47.20
2018-09-08T15:58:12.233Z,46.90
2018-09-08T16:00:42.493Z,56.00
2018-09-08T16:03:11.709Z,51.90
2018-09-08T16:05:40.974Z,46.10
2018-09-08T16:08:10.377Z,47.50
2018-09-08T16:11:14.372Z,50.80
2018-09-08T16:18:42.871Z,92.60
2018-09-08T16:21:12.186Z,90.50
2018-09-08T16:23:41.622Z,90.60
2018-09-08T16:26:11.001Z,90.40
2018-09-08T16:31:09.140Z,56.60
2018-09-08T16:36:07.249Z,54.90
2018-09-08T16:38:43.515Z,61.50
2018-09-08T16:43:41.452Z,57.90
2018-09-08T16:46:10.545Z,61.40
2018-09-08T16:48:44.024Z,60.90
2018-09-08T16:51:13.228Z,59.80
2018-09-08T16:53:42.530Z,71.80
2018-09-08T16:56:11.939Z,81.60
2018-09-08T17:03:44.934Z,65.40
2018-09-08T17:06:14.370Z,76.60
2018-09-08T17:11:12.952Z,68.90
2018-09-08T17:16:11.381Z,71.80
2018-09-08T17:18:40.802Z,74.80
2018-09-08T17:21:10.228Z,77.30
2018-09-08T17:23:39.658Z,80.70
2018-09-08T17:26:09.085Z,81.30
2018-09-08T17:29:02.567Z,83.80
2018-09-08T17:31:32.053Z,85.40
2018-09-08T17:34:01.461Z,86.10
2018-09-08T17:36:30.909Z,91.10
2018-09-08T17:39:11.401Z,94.50
2018-09-08T17:41:40.857Z,94.40
2018-09-08T17:44:10.338Z,98.30
2018-09-08T17:46:39.878Z,99.90
2018-09-08T17:49:10.317Z,94.90
2018-09-08T17:51:39.793Z,96.80
2018-09-08T17:54:09.217Z,96.20
2018-09-08T17:56:38.333Z,96.40
2018-09-08T17:59:12.579Z,98.70
2018-09-08T18:01:41.849Z,99.90
2018-09-08T18:04:11.003Z,99.90
2018-09-08T18:09:22.089Z,99.90
2018-09-08T18:14:20.045Z,99.90
2018-09-08T18:16:49.212Z,99.90
2018-09-08T18:19:23.040Z,99.90
2018-09-08T18:21:52.140Z,99.90
2018-09-08T18:24:21.298Z,99.90
2018-09-08T18:26:50.697Z,99.90
2018-09-08T18:29:21.285Z,99.90
2018-09-08T18:31:50.808Z,99.90
2018-09-08T18:34:20.229Z,99.90
2018-09-08T18:36:49.704Z,99.90
2018-09-08T18:39:19.167Z,99.90
2018-09-08T18:41:48.541Z,99.90
2018-09-08T18:44:18.027Z,99.90
2018-09-08T18:46:47.710Z,99.90
2018-09-08T18:49:19.100Z,99.90
2018-09-08T18:54:17.727Z,99.90
2018-09-08T18:56:46.921Z,99.90
2018-09-08T18:59:16.795Z,99.90
2018-09-08T19:01:45.944Z,99.90
2018-09-08T19:04:15.021Z,99.90
2018-09-08T19:06:44.256Z,99.90
2018-09-08T19:09:28.788Z,99.90
2018-09-08T19:11:58.138Z,99.90
2018-09-08T19:17:01.908Z,99.90
2018-09-08T19:19:31.490Z,99.90
2018-09-08T19:22:00.911Z,99.90
2018-09-08T19:24:45.718Z,99.90
2018-09-08T19:27:15.117Z,99.90
2018-09-08T19:32:36.046Z,99.90
2018-09-08T19:35:10.685Z,99.90
2018-09-08T19:37:40.019Z,99.90
2018-09-08T19:40:16.728Z,99.90
2018-09-08T19:42:46.112Z,99.90
2018-09-08T19:45:15.446Z,99.90
2018-09-08T19:47:50.008Z,99.90
2018-09-08T19:50:26.818Z,99.90
2018-09-08T19:53:01.129Z,99.90
2018-09-08T19:55:30.625Z,99.90
2018-09-08T20:05:36.240Z,99.90
2018-09-08T20:08:05.669Z,99.90
2018-09-08T20:10:48.303Z,99.90
2018-09-08T20:13:17.772Z,99.90
2018-09-08T20:16:06.045Z,99.90
2018-09-08T20:18:37.541Z,99.90
2018-09-08T20:21:07.007Z,99.90
2018-09-08T20:23:36.404Z,99.90
2018-09-08T20:26:05.838Z,99.90
2018-09-08T20:28:39.737Z,99.90
2018-09-08T20:31:09.133Z,99.90
2018-09-08T20:33:38.472Z,99.90
2018-09-08T20:36:07.882Z,99.90
2018-09-08T20:38:47.490Z,99.90
2018-09-08T20:41:16.884Z,99.90
2018-09-08T20:49:02.230Z,99.90
2018-09-08T20:51:31.601Z,99.90
2018-09-08T20:54:00.978Z,99.90
2018-09-08T20:56:30.336Z,99.90
2018-09-08T20:59:04.768Z,99.90
2018-09-08T21:01:34.125Z,99.90
2018-09-08T21:04:03.456Z,99.90
2018-09-08T21:06:32.928Z,99.90
2018-09-08T21:09:27.514Z,99.90
2018-09-08T21:11:57.147Z,99.90
2018-09-08T21:14:26.469Z,99.90
2018-09-08T21:16:55.792Z,99.90
2018-09-08T21:19:33.604Z,99.90
2018-09-08T21:22:02.902Z,99.90
2018-09-08T21:24:32.213Z,99.90
2018-09-08T21:27:01.633Z,99.90
2018-09-08T21:29:31.041Z,99.90
2018-09-08T21:32:00.447Z,99.90
2018-09-08T21:34:29.851Z,99.90
2018-09-08T21:36:59.190Z,99.90
2018-09-08T21:39:30.688Z,99.90
2018-09-08T21:44:29.142Z,99.90
2018-09-08T21:46:58.477Z,99.90
2018-09-08T21:50:02.572Z,99.90
2018-09-08T21:52:31.971Z,99.90
2018-09-08T21:55:01.355Z,99.90
2018-09-08T21:57:30.737Z,99.90
2018-09-08T22:00:01.294Z,99.90
2018-09-08T22:02:30.474Z,99.90
2018-09-08T22:04:59.580Z,99.90
2018-09-08T22:07:28.777Z,99.90
2018-09-08T22:09:58.945Z,99.90
2018-09-08T22:12:28.075Z,99.90
2018-09-08T22:14:57.181Z,99.90
2018-09-08T22:17:26.276Z,99.90
2018-09-08T22:20:03.376Z,99.90
2018-09-08T22:22:32.481Z,99.90
2018-09-08T22:25:01.567Z,99.90
2018-09-08T22:27:30.685Z,99.90
2018-09-08T22:30:01.853Z,99.90
2018-09-08T22:32:30.945Z,99.90
2018-09-08T22:35:00.038Z,99.90
2018-09-08T22:37:29.160Z,99.90
2018-09-08T22:40:00.584Z,99.90
2018-09-08T22:42:29.999Z,99.90
2018-09-08T22:44:59.332Z,99.90
2018-09-08T22:47:28.844Z,99.90
2018-09-08T22:50:00.444Z,99.90
2018-09-08T22:52:29.780Z,99.90
2018-09-08T22:54:59.149Z,99.90
2018-09-08T22:57:28.588Z,99.90
2018-09-08T23:00:05.346Z,99.90
2018-09-08T23:02:34.815Z,99.90
2018-09-08T23:05:04.242Z,99.90
2018-09-08T23:07:33.649Z,99.90
2018-09-08T23:10:20.186Z,99.90
2018-09-08T23:12:49.653Z,99.90
2018-09-08T23:15:19.892Z,99.90
2018-09-08T23:17:49.448Z,99.90
2018-09-08T23:20:26.553Z,99.90
2018-09-08T23:22:55.918Z,99.90
2018-09-08T23:25:25.306Z,99.90
2018-09-08T23:30:23.789Z,99.90
2018-09-08T23:32:53.233Z,99.90
2018-09-08T23:35:22.670Z,99.90
2018-09-08T23:37:52.134Z,99.90
2018-09-08T23:40:21.532Z,99.90
2018-09-08T23:42:50.880Z,99.90
2018-09-08T23:45:20.234Z,99.90
2018-09-08T23:47:49.698Z,99.90
2018-09-08T23:50:24.341Z,99.90
2018-09-08T23:52:53.685Z,99.90
2018-09-08T23:55:23.045Z,99.90
2018-09-08T23:57:52.449Z,99.90
